createdAt,value
2023-12-01T00:00:38.039Z,82.00
2023-12-01T00:03:26.092Z,72.10
2023-12-01T00:05:54.055Z,87.30
2023-12-01T00:08:22.074Z,83.60
2023-12-01T00:10:50.058Z,76.10
2023-12-01T00:13:18.421Z,90.90
2023-12-01T00:15:46.634Z,88.10
2023-12-01T00:18:15.075Z,74.80
2023-12-01T00:20:44.421Z,79.30
2023-12-01T00:23:12.576Z,78.20
2023-12-01T00:25:40.573Z,70.20
2023-12-01T00:28:08.611Z,76.40
2023-12-01T00:30:36.620Z,78.50
2023-12-01T00:33:04.685Z,81.00
2023-12-01T00:35:32.713Z,76.20
2023-12-01T00:38:00.683Z,75.10
2023-12-01T00:40:28.600Z,74.40
2023-12-01T00:42:56.720Z,72.30
2023-12-01T00:45:24.717Z,63.30
2023-12-01T00:47:52.849Z,72.00
2023-12-01T00:50:20.752Z,67.00
2023-12-01T00:52:48.817Z,75.80
2023-12-01T00:55:16.843Z,67.80
2023-12-01T00:57:44.962Z,73.00
2023-12-01T01:00:13.209Z,73.20
2023-12-01T01:02:42.193Z,72.60
2023-12-01T01:05:10.269Z,64.60
2023-12-01T01:07:38.323Z,73.30
2023-12-01T01:10:07.280Z,63.80
2023-12-01T01:12:35.325Z,76.10
2023-12-01T01:15:04.857Z,74.80
2023-12-01T01:17:33.168Z,74.50
2023-12-01T01:20:01.902Z,77.30
2023-12-01T01:22:29.771Z,74.40
2023-12-01T01:24:58.235Z,75.30
2023-12-01T01:27:26.155Z,70.50
2023-12-01T01:29:53.950Z,68.00
2023-12-01T01:32:21.895Z,70.30
2023-12-01T01:34:49.966Z,73.00
2023-12-01T01:37:17.924Z,72.60
2023-12-01T01:39:45.959Z,72.00
2023-12-01T01:42:14.017Z,67.20
2023-12-01T01:44:41.945Z,79.00
2023-12-01T01:47:10.034Z,73.30
2023-12-01T01:49:38.507Z,72.30
2023-12-01T01:52:07.047Z,72.80
2023-12-01T01:54:35.046Z,77.70
2023-12-01T01:57:04.028Z,69.90
2023-12-01T01:59:31.972Z,67.70
2023-12-01T02:01:59.801Z,77.10
2023-12-01T02:04:28.049Z,74.90
2023-12-01T02:06:56.313Z,83.80
2023-12-01T02:09:24.274Z,75.50
2023-12-01T02:11:52.139Z,73.00
2023-12-01T02:14:20.032Z,71.30
2023-12-01T02:16:48.108Z,78.10
2023-12-01T02:19:16.120Z,78.00
2023-12-01T02:21:46.121Z,73.50
2023-12-01T02:24:14.602Z,72.00
2023-12-01T02:26:42.386Z,76.30
2023-12-01T02:29:10.238Z,68.50
2023-12-01T02:31:38.182Z,72.50
2023-12-01T02:34:06.029Z,74.00
2023-12-01T02:36:33.937Z,73.00
2023-12-01T02:39:02.460Z,75.00
2023-12-01T02:41:30.804Z,73.10
2023-12-01T02:43:58.602Z,66.70
2023-12-01T02:46:26.455Z,74.30
2023-12-01T02:48:54.413Z,74.60
2023-12-01T02:51:23.799Z,74.30
2023-12-01T02:53:51.660Z,73.20
2023-12-01T02:56:19.561Z,65.70
2023-12-01T02:58:47.319Z,63.00
2023-12-01T03:01:16.409Z,71.00
2023-12-01T03:03:44.656Z,62.50
2023-12-01T03:06:12.475Z,65.50
2023-12-01T03:08:40.369Z,71.80
2023-12-01T03:11:09.317Z,78.10
2023-12-01T03:13:37.176Z,65.80
2023-12-01T03:16:05.490Z,70.90
2023-12-01T03:18:33.916Z,70.10
2023-12-01T03:21:01.901Z,73.30
2023-12-01T03:23:30.149Z,68.30
2023-12-01T03:25:57.952Z,69.00
2023-12-01T03:28:25.839Z,70.10
2023-12-01T03:30:53.800Z,62.60
2023-12-01T03:33:21.669Z,64.70
2023-12-01T03:35:49.607Z,70.60
2023-12-01T03:38:17.481Z,62.00
2023-12-01T03:40:45.886Z,65.60
2023-12-01T03:43:13.751Z,63.70
2023-12-01T03:45:41.805Z,64.20
2023-12-01T03:48:09.673Z,58.80
2023-12-01T03:50:37.765Z,70.40
2023-12-01T03:53:05.527Z,69.20
2023-12-01T03:55:33.356Z,76.10
2023-12-01T03:58:03.688Z,63.20
2023-12-01T04:00:34.310Z,51.50
2023-12-01T04:03:02.530Z,57.50
2023-12-01T04:05:32.190Z,62.70
2023-12-01T04:08:00.222Z,59.20
2023-12-01T04:10:29.274Z,63.30
2023-12-01T04:12:57.736Z,59.60
2023-12-01T04:15:28.982Z,63.00
2023-12-01T04:17:56.942Z,74.00
2023-12-01T04:20:28.937Z,78.40
2023-12-01T04:23:00.317Z,87.80
2023-12-01T04:25:29.080Z,91.40
2023-12-01T04:27:58.720Z,101.40
2023-12-01T04:30:26.845Z,92.70
2023-12-01T04:32:57.496Z,86.90
2023-12-01T04:35:36.794Z,84.10
2023-12-01T04:38:05.325Z,83.00
2023-12-01T04:40:33.963Z,75.50
2023-12-01T04:43:02.831Z,74.60
2023-12-01T04:45:33.760Z,68.30
2023-12-01T04:48:01.900Z,69.00
2023-12-01T04:50:31.652Z,70.40
2023-12-01T04:53:02.515Z,71.50
2023-12-01T04:55:31.455Z,63.10
2023-12-01T04:58:02.159Z,64.40
2023-12-01T05:00:30.174Z,63.90
2023-12-01T05:03:03.643Z,63.40
2023-12-01T05:05:34.479Z,61.70
2023-12-01T05:08:06.314Z,58.20
2023-12-01T05:10:35.866Z,60.50
2023-12-01T05:13:06.099Z,51.90
2023-12-01T05:15:36.397Z,57.70
2023-12-01T05:18:13.722Z,67.10
2023-12-01T05:20:42.136Z,66.90
2023-12-01T05:23:11.082Z,71.70
2023-12-01T05:25:42.963Z,69.30
2023-12-01T05:28:12.620Z,60.50
2023-12-01T05:30:42.574Z,59.70
2023-12-01T05:33:10.902Z,63.00
2023-12-01T05:35:40.237Z,63.30
2023-12-01T05:38:11.098Z,56.60
2023-12-01T05:40:39.669Z,61.40
2023-12-01T05:43:09.086Z,64.50
2023-12-01T05:45:38.324Z,70.10
2023-12-01T05:48:10.531Z,59.70
2023-12-01T05:50:40.120Z,56.20
2023-12-01T05:53:08.300Z,58.20
2023-12-01T05:55:39.598Z,59.00
2023-12-01T05:58:12.434Z,59.90
2023-12-01T06:00:41.841Z,58.70
2023-12-01T06:03:11.878Z,70.40
2023-12-01T06:05:40.841Z,60.40
2023-12-01T06:08:12.225Z,58.30
2023-12-01T06:10:41.340Z,60.60
2023-12-01T06:13:09.560Z,55.00
2023-12-01T06:15:37.546Z,63.20
2023-12-01T06:18:05.468Z,55.90
2023-12-01T06:20:35.582Z,68.10
2023-12-01T06:23:08.762Z,60.10
2023-12-01T06:25:39.588Z,57.20
2023-12-01T06:28:07.759Z,57.70
2023-12-01T06:30:37.432Z,47.90
2023-12-01T06:33:10.581Z,58.30
2023-12-01T06:35:39.088Z,58.90
2023-12-01T06:38:08.402Z,63.60
2023-12-01T06:40:36.284Z,55.20
2023-12-01T06:43:11.871Z,60.20
2023-12-01T06:45:43.655Z,55.00
2023-12-01T06:48:12.843Z,51.20
2023-12-01T06:50:40.841Z,53.00
2023-12-01T06:53:08.994Z,50.80
2023-12-01T06:55:37.763Z,53.60
2023-12-01T06:58:05.932Z,45.00
2023-12-01T07:00:38.383Z,46.80
2023-12-01T07:03:12.190Z,55.70
2023-12-01T07:05:42.495Z,41.00
2023-12-01T07:08:14.386Z,51.90
2023-12-01T07:10:43.393Z,48.60
2023-12-01T07:13:11.422Z,47.50
2023-12-01T07:15:39.491Z,40.20
2023-12-01T07:18:08.262Z,45.10
2023-12-01T07:20:36.370Z,35.50
2023-12-01T07:23:06.144Z,46.70
2023-12-01T07:25:35.782Z,41.00
2023-12-01T07:28:05.768Z,37.80
2023-12-01T07:30:35.102Z,38.30
2023-12-01T07:33:05.852Z,35.80
2023-12-01T07:35:33.970Z,36.70
2023-12-01T07:38:02.066Z,41.10
2023-12-01T07:40:33.253Z,46.60
2023-12-01T07:43:01.153Z,28.30
2023-12-01T07:45:29.004Z,38.30
2023-12-01T07:47:57.601Z,37.40
2023-12-01T07:50:28.194Z,42.90
2023-12-01T07:52:57.380Z,42.60
2023-12-01T07:55:26.088Z,43.40
2023-12-01T07:57:54.018Z,44.00
2023-12-01T08:00:22.994Z,45.60
2023-12-01T08:02:54.696Z,38.10
2023-12-01T08:05:25.536Z,30.60
2023-12-01T08:07:57.108Z,47.90
2023-12-01T08:10:30.052Z,37.00
2023-12-01T08:13:00.370Z,39.00
2023-12-01T08:15:30.024Z,29.40
2023-12-01T08:18:00.381Z,34.40
2023-12-01T08:20:32.729Z,34.50
2023-12-01T08:23:01.888Z,37.10
2023-12-01T08:25:32.018Z,38.50
2023-12-01T08:28:00.504Z,38.50
2023-12-01T08:30:29.563Z,41.20
2023-12-01T08:32:58.241Z,37.30
2023-12-01T08:35:26.667Z,38.40
2023-12-01T08:37:55.476Z,34.90
2023-12-01T08:40:24.466Z,38.20
2023-12-01T08:42:55.077Z,40.80
2023-12-01T08:45:23.579Z,36.60
2023-12-01T08:47:53.584Z,38.40
2023-12-01T08:50:22.251Z,40.10
2023-12-01T08:52:50.161Z,40.20
2023-12-01T08:55:18.147Z,44.00
2023-12-01T08:57:45.994Z,42.40
2023-12-01T09:00:20.238Z,35.00
2023-12-01T09:02:50.528Z,31.40
2023-12-01T09:05:19.163Z,42.90
2023-12-01T09:07:50.261Z,38.10
2023-12-01T09:10:21.621Z,42.90
2023-12-01T09:12:53.821Z,33.60
2023-12-01T09:15:22.325Z,39.10
2023-12-01T09:17:51.561Z,37.80
2023-12-01T09:20:21.495Z,40.40
2023-12-01T09:22:49.615Z,32.30
2023-12-01T09:25:17.571Z,43.60
2023-12-01T09:27:45.386Z,34.90
2023-12-01T09:30:18.346Z,44.30
2023-12-01T09:32:47.539Z,44.90
2023-12-01T09:35:17.120Z,41.10
2023-12-01T09:38:05.590Z,43.40
2023-12-01T09:40:40.918Z,43.30
2023-12-01T09:43:09.034Z,65.90
2023-12-01T09:45:36.998Z,40.60
2023-12-01T09:48:07.776Z,44.10
2023-12-01T09:50:36.177Z,43.00
2023-12-01T09:53:04.166Z,41.80
2023-12-01T09:55:33.224Z,37.70
2023-12-01T09:58:01.134Z,46.30
2023-12-01T10:00:29.199Z,43.90
2023-12-01T10:02:57.315Z,44.00
2023-12-01T10:05:27.188Z,41.50
2023-12-01T10:07:57.177Z,42.20
2023-12-01T10:10:27.845Z,44.50
2023-12-01T10:12:57.492Z,41.40
2023-12-01T10:15:27.270Z,49.70
2023-12-01T10:18:08.143Z,50.30
2023-12-01T10:20:36.866Z,48.60
2023-12-01T10:23:20.959Z,48.40
2023-12-01T10:25:53.489Z,47.30
2023-12-01T10:28:22.375Z,50.90
2023-12-01T10:30:58.881Z,51.60
2023-12-01T10:33:30.109Z,58.10
2023-12-01T10:36:02.780Z,48.50
2023-12-01T10:38:31.973Z,46.90
2023-12-01T10:41:01.297Z,55.10
2023-12-01T10:43:29.334Z,49.20
2023-12-01T10:46:04.004Z,42.90
2023-12-01T10:48:34.078Z,48.10
2023-12-01T10:51:07.286Z,51.00
2023-12-01T10:53:36.445Z,37.00
2023-12-01T10:56:13.029Z,46.00
2023-12-01T10:58:42.040Z,51.60
2023-12-01T11:01:10.210Z,49.60
2023-12-01T11:03:42.429Z,45.80
2023-12-01T11:06:30.755Z,45.80
2023-12-01T11:09:24.446Z,46.50
2023-12-01T11:12:24.622Z,46.40
2023-12-01T11:14:54.359Z,37.90
2023-12-01T11:17:22.829Z,50.50
2023-12-01T11:19:50.769Z,46.10
2023-12-01T11:22:34.113Z,37.80
2023-12-01T11:25:02.406Z,43.10
2023-12-01T11:27:32.973Z,40.70
2023-12-01T11:30:09.163Z,45.40
2023-12-01T11:32:42.698Z,43.00
2023-12-01T11:35:12.990Z,40.00
2023-12-01T11:38:01.208Z,34.60
2023-12-01T11:40:39.188Z,36.00
2023-12-01T11:43:19.189Z,43.10
2023-12-01T11:45:50.509Z,38.60
2023-12-01T11:48:19.333Z,39.10
2023-12-01T11:50:47.764Z,39.90
2023-12-01T11:53:15.992Z,37.20
2023-12-01T11:55:43.961Z,36.30
2023-12-01T11:58:19.401Z,41.40
2023-12-01T12:00:47.755Z,50.20
2023-12-01T12:03:22.938Z,48.90
2023-12-01T12:05:53.638Z,46.50
2023-12-01T12:08:24.044Z,47.50
2023-12-01T12:10:52.532Z,44.20
2023-12-01T12:13:20.604Z,46.10
2023-12-01T12:15:49.440Z,41.70
2023-12-01T12:18:17.685Z,47.10
2023-12-01T12:20:48.356Z,38.90
2023-12-01T12:23:16.477Z,38.90
2023-12-01T12:25:46.327Z,41.50
2023-12-01T12:28:14.221Z,38.20
2023-12-01T12:30:42.524Z,35.30
2023-12-01T12:33:11.122Z,41.80
2023-12-01T12:35:39.378Z,42.90
2023-12-01T12:38:08.328Z,52.40
2023-12-01T12:40:36.287Z,44.20
2023-12-01T12:43:06.814Z,41.50
2023-12-01T12:45:34.875Z,48.10
2023-12-01T12:48:10.831Z,43.40
2023-12-01T12:50:43.216Z,36.90
2023-12-01T12:53:11.333Z,39.50
2023-12-01T12:55:39.825Z,40.80
2023-12-01T12:58:08.294Z,37.00
2023-12-01T13:00:36.197Z,44.00
2023-12-01T13:03:05.000Z,49.40
2023-12-01T13:05:33.279Z,48.10
2023-12-01T13:08:01.101Z,41.30
2023-12-01T13:10:28.931Z,45.90
2023-12-01T13:12:56.851Z,40.60
2023-12-01T13:15:25.032Z,42.80
2023-12-01T13:17:53.186Z,42.40
2023-12-01T13:20:21.238Z,43.50
2023-12-01T13:22:49.192Z,40.20
2023-12-01T13:25:17.239Z,43.40
2023-12-01T13:27:45.444Z,54.50
2023-12-01T13:30:14.019Z,47.90
2023-12-01T13:32:42.013Z,46.70
2023-12-01T13:35:10.094Z,49.70
2023-12-01T13:37:39.714Z,47.30
2023-12-01T13:40:09.709Z,44.40
2023-12-01T13:42:38.262Z,45.70
2023-12-01T13:45:10.275Z,45.40
2023-12-01T13:47:43.364Z,42.20
2023-12-01T13:50:11.954Z,49.00
2023-12-01T13:52:40.408Z,48.10
2023-12-01T13:55:08.789Z,41.20
2023-12-01T13:57:39.469Z,45.30
2023-12-01T14:00:14.332Z,38.10
2023-12-01T14:02:47.332Z,37.30
2023-12-01T14:05:19.205Z,39.50
2023-12-01T14:10:16.558Z,41.90
2023-12-01T14:12:44.608Z,44.30
2023-12-01T14:15:12.856Z,55.60
2023-12-01T14:17:41.300Z,53.90
2023-12-01T14:20:10.454Z,49.30
2023-12-01T14:22:39.773Z,57.10
2023-12-01T14:25:09.390Z,50.60
2023-12-01T14:27:37.222Z,47.50
2023-12-01T14:30:05.735Z,45.90
2023-12-01T14:32:35.652Z,62.30
2023-12-01T14:35:04.544Z,55.10
2023-12-01T14:37:32.399Z,59.30
2023-12-01T14:40:02.109Z,52.50
2023-12-01T14:42:31.624Z,44.90
2023-12-01T14:44:59.813Z,52.80
2023-12-01T14:47:29.516Z,59.00
2023-12-01T14:49:57.489Z,61.90
2023-12-01T14:52:25.405Z,57.00
2023-12-01T14:54:53.677Z,60.60
2023-12-01T14:57:21.776Z,65.80
2023-12-01T14:59:50.263Z,79.30
2023-12-01T15:02:18.221Z,71.40
2023-12-01T15:04:46.096Z,66.80
2023-12-01T15:07:14.140Z,61.60
2023-12-01T15:09:42.219Z,64.90
2023-12-01T15:12:10.319Z,63.20
2023-12-01T15:14:38.349Z,60.70
2023-12-01T15:17:06.332Z,61.00
2023-12-01T15:19:34.281Z,62.00
2023-12-01T15:22:02.544Z,65.40
2023-12-01T15:24:30.609Z,56.30
2023-12-01T15:26:58.505Z,59.20
2023-12-01T15:29:26.496Z,63.70
2023-12-01T15:31:54.368Z,59.50
2023-12-01T15:34:22.326Z,54.20
2023-12-01T15:36:50.264Z,60.40
2023-12-01T15:39:18.331Z,57.30
2023-12-01T15:41:46.288Z,54.60
2023-12-01T15:44:14.246Z,62.50
2023-12-01T15:46:42.040Z,69.10
2023-12-01T15:49:10.087Z,58.20
2023-12-01T15:51:37.967Z,53.30
2023-12-01T15:54:06.118Z,57.70
2023-12-01T15:56:33.977Z,62.60
2023-12-01T15:59:02.359Z,57.50
2023-12-01T16:01:31.317Z,58.50
2023-12-01T16:03:59.876Z,47.90
2023-12-01T16:06:27.817Z,57.80
2023-12-01T16:08:55.663Z,62.50
2023-12-01T16:11:23.559Z,63.50
2023-12-01T16:13:51.461Z,61.50
2023-12-01T16:16:19.387Z,80.90
2023-12-01T16:18:47.439Z,76.70
2023-12-01T16:21:22.890Z,81.20
2023-12-01T16:23:51.037Z,84.80
2023-12-01T16:26:18.868Z,93.00
2023-12-01T16:28:46.908Z,84.80
2023-12-01T16:31:15.008Z,96.20
2023-12-01T16:33:42.963Z,95.50
2023-12-01T16:36:30.553Z,99.00
2023-12-01T16:38:59.997Z,93.70
2023-12-01T16:41:28.076Z,94.00
2023-12-01T16:43:56.126Z,113.40
2023-12-01T16:46:24.068Z,117.50
2023-12-01T16:48:51.938Z,104.40
2023-12-01T16:51:19.823Z,95.90
2023-12-01T16:53:47.774Z,95.90
2023-12-01T16:56:17.744Z,109.40
2023-12-01T16:58:47.008Z,108.60
2023-12-01T17:01:14.828Z,112.60
2023-12-01T17:03:43.357Z,97.00
2023-12-01T17:06:11.994Z,100.30
2023-12-01T17:08:39.887Z,105.20
2023-12-01T17:11:08.717Z,102.90
2023-12-01T17:13:36.656Z,115.80
2023-12-01T17:16:06.166Z,119.70
2023-12-01T17:18:34.511Z,121.20
2023-12-01T17:21:02.607Z,114.90
2023-12-01T17:23:30.931Z,111.60
2023-12-01T17:25:58.843Z,122.00
2023-12-01T17:28:26.619Z,123.90
2023-12-01T17:30:54.472Z,107.40
2023-12-01T17:33:22.347Z,101.90
2023-12-01T17:35:50.331Z,116.60
2023-12-01T17:38:18.177Z,122.90
2023-12-01T17:40:46.070Z,111.80
2023-12-01T17:43:14.129Z,129.60
2023-12-01T17:45:42.683Z,112.40
2023-12-01T17:48:11.048Z,115.30
2023-12-01T17:50:39.203Z,117.10
2023-12-01T17:53:07.322Z,120.00
2023-12-01T17:55:35.180Z,128.00
2023-12-01T17:58:04.376Z,140.50
2023-12-01T18:00:33.127Z,103.70
2023-12-01T18:03:01.154Z,96.20
2023-12-01T18:05:29.195Z,107.80
2023-12-01T18:07:57.105Z,104.00
2023-12-01T18:10:24.968Z,104.10
2023-12-01T18:12:53.101Z,88.00
2023-12-01T18:15:21.065Z,95.40
2023-12-01T18:17:49.248Z,111.90
2023-12-01T18:20:17.911Z,127.10
2023-12-01T18:22:48.126Z,111.30
2023-12-01T18:25:16.001Z,93.30
2023-12-01T18:27:43.820Z,92.60
2023-12-01T18:30:12.862Z,102.20
2023-12-01T18:32:40.952Z,98.30
2023-12-01T18:35:09.144Z,93.40
2023-12-01T18:37:37.032Z,98.50
2023-12-01T18:40:05.862Z,81.90
2023-12-01T18:42:34.162Z,79.40
2023-12-01T18:45:02.080Z,78.90
2023-12-01T18:47:29.938Z,83.70
2023-12-01T18:49:58.156Z,77.00
2023-12-01T18:52:26.332Z,69.20
2023-12-01T18:54:54.304Z,70.50
2023-12-01T18:57:23.057Z,77.80
2023-12-01T18:59:51.419Z,71.60
2023-12-01T19:02:19.376Z,73.70
2023-12-01T19:04:47.369Z,70.40
2023-12-01T19:07:15.356Z,79.20
2023-12-01T19:09:43.215Z,73.90
2023-12-01T19:12:11.212Z,67.80
2023-12-01T19:14:39.104Z,68.10
2023-12-01T19:17:07.130Z,71.50
2023-12-01T19:19:35.972Z,72.70
2023-12-01T19:22:05.050Z,71.50
2023-12-01T19:24:33.023Z,65.60
2023-12-01T19:27:01.426Z,65.80
2023-12-01T19:29:29.434Z,67.50
2023-12-01T19:31:57.338Z,80.30
2023-12-01T19:34:25.440Z,66.20
2023-12-01T19:36:55.372Z,65.50
2023-12-01T19:39:25.190Z,62.90
2023-12-01T19:41:53.306Z,67.60
2023-12-01T19:44:21.137Z,69.70
2023-12-01T19:46:48.984Z,65.80
2023-12-01T19:49:16.852Z,67.60
2023-12-01T19:51:44.673Z,60.80
2023-12-01T19:54:12.662Z,73.30
2023-12-01T19:56:40.451Z,72.30
2023-12-01T19:59:08.370Z,63.40
2023-12-01T20:01:36.220Z,68.80
2023-12-01T20:04:05.966Z,63.10
2023-12-01T20:06:33.936Z,67.10
2023-12-01T20:09:01.975Z,63.80
2023-12-01T20:11:30.021Z,61.90
2023-12-01T20:13:58.495Z,65.70
2023-12-01T20:16:29.853Z,66.00
2023-12-01T20:18:57.910Z,60.10
2023-12-01T20:21:26.034Z,64.90
2023-12-01T20:23:54.386Z,65.80
2023-12-01T20:26:22.410Z,59.80
2023-12-01T20:28:50.532Z,71.00
2023-12-01T20:31:18.311Z,61.50
2023-12-01T20:33:46.189Z,62.60
2023-12-01T20:36:14.336Z,59.90
2023-12-01T20:38:42.308Z,67.00
2023-12-01T20:41:10.102Z,56.50
2023-12-01T20:43:38.429Z,65.40
2023-12-01T20:46:14.054Z,65.30
2023-12-01T20:48:42.332Z,66.70
2023-12-01T20:51:19.212Z,59.70
2023-12-01T20:53:47.052Z,54.10
2023-12-01T20:56:15.076Z,65.50
2023-12-01T20:58:43.014Z,91.10
2023-12-01T21:01:11.232Z,103.00
2023-12-01T21:03:39.118Z,75.90
2023-12-01T21:06:07.300Z,92.40
2023-12-01T21:08:35.157Z,85.50
2023-12-01T21:11:03.117Z,93.20
2023-12-01T21:13:31.275Z,93.70
2023-12-01T21:15:59.285Z,110.60
2023-12-01T21:18:27.235Z,107.80
2023-12-01T21:20:55.354Z,114.20
2023-12-01T21:23:24.168Z,94.90
2023-12-01T21:25:52.400Z,96.50
2023-12-01T21:28:20.471Z,101.30
2023-12-01T21:30:48.382Z,101.30
2023-12-01T21:33:16.436Z,94.60
2023-12-01T21:35:44.481Z,81.90
2023-12-01T21:38:12.394Z,86.50
2023-12-01T21:40:44.667Z,83.20
2023-12-01T21:43:12.721Z,80.70
2023-12-01T21:45:40.591Z,68.80
2023-12-01T21:48:10.029Z,73.10
2023-12-01T21:50:38.087Z,65.70
2023-12-01T21:53:06.421Z,72.70
2023-12-01T21:55:34.261Z,72.30
2023-12-01T21:58:03.326Z,78.00
2023-12-01T22:00:32.223Z,68.00
2023-12-01T22:03:00.509Z,72.10
2023-12-01T22:05:28.573Z,66.40
2023-12-01T22:07:56.482Z,64.40
2023-12-01T22:10:24.390Z,73.20
2023-12-01T22:12:52.191Z,68.20
2023-12-01T22:15:20.084Z,68.00
2023-12-01T22:17:48.079Z,64.00
2023-12-01T22:20:16.147Z,69.60
2023-12-01T22:22:44.185Z,79.60
2023-12-01T22:25:12.072Z,69.10
2023-12-01T22:27:40.217Z,62.60
2023-12-01T22:30:08.790Z,63.90
2023-12-01T22:32:37.831Z,73.00
2023-12-01T22:35:06.173Z,77.20
2023-12-01T22:37:34.014Z,86.10
2023-12-01T22:40:01.966Z,89.60
2023-12-01T22:42:29.850Z,71.20
2023-12-01T22:44:57.745Z,67.00
2023-12-01T22:47:25.577Z,75.40
2023-12-01T22:49:53.952Z,67.10
2023-12-01T22:52:21.936Z,72.40
2023-12-01T22:54:50.139Z,64.80
2023-12-01T22:57:18.339Z,73.00
2023-12-01T22:59:46.451Z,67.50
2023-12-01T23:02:14.422Z,67.50
2023-12-01T23:04:42.457Z,73.30
2023-12-01T23:07:10.354Z,58.10
2023-12-01T23:09:38.256Z,70.40
2023-12-01T23:12:06.888Z,65.10
2023-12-01T23:14:34.801Z,66.40
2023-12-01T23:17:02.705Z,68.90
2023-12-01T23:19:30.690Z,72.80
2023-12-01T23:21:58.772Z,72.80
2023-12-01T23:24:26.730Z,64.50
2023-12-01T23:26:54.548Z,71.20
2023-12-01T23:29:22.335Z,61.80
2023-12-01T23:31:50.631Z,64.90
2023-12-01T23:34:18.597Z,64.90
2023-12-01T23:36:46.616Z,60.20
2023-12-01T23:39:14.427Z,67.20
2023-12-01T23:41:42.338Z,61.60
2023-12-01T23:44:10.127Z,62.60
2023-12-01T23:46:37.926Z,65.40
2023-12-01T23:49:05.765Z,65.90
2023-12-01T23:51:33.833Z,55.60
2023-12-01T23:54:01.709Z,67.80
2023-12-01T23:56:29.621Z,67.40
2023-12-01T23:58:57.517Z,62.80
